Time;durP1;ratioP1;P1;durP2;ratioP2;P2;SDS_P1;SDS_P2;PMS_P1;PMS_P2;Temp;Humidity;BMP_temperature;BMP_pressure;BME280_temperature;BME280_humidity;BME280_pressure;Samples;Min_cycle;Max_cycle;Signal;HPM_P1;HPM_P2
2022/10/25 00:01:26;;;;;;;6.60;1.90;;;13.50;99.90;;;;;;5053064;28;20229;-61
2022/10/25 00:03:53;;;;;;;10.70;2.10;;;13.50;99.90;;;;;;5052697;28;20205;-61
2022/10/25 00:06:19;;;;;;;9.27;1.73;;;13.50;99.90;;;;;;5052485;28;20270;-62
2022/10/25 00:08:48;;;;;;;8.43;2.07;;;13.50;99.90;;;;;;5052741;28;20278;-61
2022/10/25 00:11:20;;;;;;;11.37;2.07;;;13.50;99.90;;;;;;5052208;28;20291;-61
2022/10/25 00:13:49;;;;;;;6.47;1.47;;;13.50;99.90;;;;;;5052657;28;20209;-62
2022/10/25 00:16:16;;;;;;;7.83;1.70;;;13.50;99.90;;;;;;5052421;28;20293;-61
2022/10/25 00:18:43;;;;;;;3.40;1.60;;;13.50;99.90;;;;;;5052433;28;20613;-62
2022/10/25 00:21:09;;;;;;;7.77;1.87;;;13.50;99.90;;;;;;5052016;28;20708;-62
2022/10/25 00:23:36;;;;;;;6.57;1.73;;;13.50;99.90;;;;;;5052301;28;20217;-62
2022/10/25 00:26:08;;;;;;;6.47;1.90;;;13.50;99.90;;;;;;5052254;28;20209;-62
2022/10/25 00:28:35;;;;;;;5.63;1.50;;;13.50;99.90;;;;;;5052128;28;20206;-62
2022/10/25 00:31:03;;;;;;;7.27;1.60;;;13.50;99.90;;;;;;5052424;28;20264;-62
2022/10/25 00:33:30;;;;;;;9.20;1.87;;;13.50;99.90;;;;;;5052084;28;20566;-62
2022/10/25 00:36:03;;;;;;;5.63;1.73;;;13.50;99.90;;;;;;5051722;28;20301;-62
2022/10/25 00:38:31;;;;;;;10.60;2.37;;;13.40;99.90;;;;;;5051812;28;20708;-62
2022/10/25 00:40:57;;;;;;;11.30;2.23;;;13.50;99.90;;;;;;5051896;28;20229;-62
2022/10/25 00:43:37;;;;;;;6.27;1.50;;;13.50;99.90;;;;;;5051771;28;20205;-62
2022/10/25 00:46:07;;;;;;;8.53;2.43;;;13.50;99.90;;;;;;5051804;28;20209;-62
2022/10/25 00:48:34;;;;;;;12.03;1.73;;;13.50;99.90;;;;;;5051610;28;20208;-62
2022/10/25 00:51:02;;;;;;;7.00;1.30;;;13.50;99.90;;;;;;5052001;28;20635;-62
2022/10/25 00:53:32;;;;;;;8.57;1.80;;;13.50;99.90;;;;;;5051768;28;20201;-62
2022/10/25 00:56:03;;;;;;;5.27;1.50;;;13.50;99.90;;;;;;5051802;28;20647;-62
2022/10/25 00:58:33;;;;;;;5.00;1.63;;;13.50;99.90;;;;;;5050358;28;20263;-62
2022/10/25 01:01:04;;;;;;;6.27;1.80;;;13.50;99.90;;;;;;5051801;28;20381;-64
2022/10/25 01:03:30;;;;;;;8.87;1.60;;;13.50;99.90;;;;;;5051631;28;20260;-62
2022/10/25 01:06:00;;;;;;;7.60;1.53;;;13.60;99.90;;;;;;5051611;28;20259;-62
2022/10/25 01:08:27;;;;;;;7.63;1.47;;;13.60;99.90;;;;;;5051635;28;20210;-62
2022/10/25 01:10:54;;;;;;;5.17;1.40;;;13.60;99.90;;;;;;5051275;28;20221;-62
2022/10/25 01:13:21;;;;;;;10.83;1.97;;;13.60;99.90;;;;;;5051601;28;20578;-62
2022/10/25 01:15:57;;;;;;;6.67;1.40;;;13.60;99.90;;;;;;5051507;28;20202;-62
2022/10/25 01:18:36;;;;;;;6.90;1.53;;;13.60;99.90;;;;;;5051658;28;20567;-62
2022/10/25 01:21:39;;;;;;;7.97;1.57;;;13.60;99.90;;;;;;5051657;28;20583;-62
2022/10/25 01:24:37;;;;;;;4.27;1.20;;;13.60;99.90;;;;;;5051204;28;20262;-62
2022/10/25 01:27:29;;;;;;;7.97;1.77;;;13.50;99.90;;;;;;5051227;28;20676;-62
2022/10/25 01:30:05;;;;;;;4.60;1.23;;;13.60;99.90;;;;;;5051523;28;20249;-62
2022/10/25 01:32:40;;;;;;;3.27;1.37;;;13.60;99.90;;;;;;5051324;28;20267;-62
2022/10/25 01:35:14;;;;;;;13.10;2.37;;;13.60;99.90;;;;;;5051286;28;20627;-62
2022/10/25 01:37:53;;;;;;;4.93;1.60;;;13.60;99.90;;;;;;5051319;28;20267;-62
2022/10/25 01:40:28;;;;;;;5.23;1.50;;;13.60;99.90;;;;;;5051213;28;20228;-62
2022/10/25 01:43:02;;;;;;;10.57;1.73;;;13.60;99.90;;;;;;5051010;28;20229;-62
2022/10/25 01:45:34;;;;;;;7.67;1.50;;;13.60;99.90;;;;;;5051396;28;20259;-62
2022/10/25 01:48:07;;;;;;;3.00;1.13;;;13.60;99.90;;;;;;5051204;28;20224;-62
2022/10/25 01:50:39;;;;;;;4.97;1.50;;;13.60;99.90;;;;;;5051153;28;20248;-62
2022/10/25 01:53:05;;;;;;;5.27;1.43;;;13.60;99.90;;;;;;5050973;28;20209;-62
2022/10/25 01:55:38;;;;;;;5.13;1.50;;;13.60;99.90;;;;;;5051078;28;20205;-62
2022/10/25 01:58:13;;;;;;;6.00;1.43;;;13.60;99.90;;;;;;5051185;28;20206;-62
2022/10/25 02:00:51;;;;;;;4.17;1.53;;;13.60;99.90;;;;;;5051126;28;20307;-62
2022/10/25 02:03:28;;;;;;;7.17;1.47;;;13.70;99.90;;;;;;5051181;28;20676;-62
2022/10/25 02:06:06;;;;;;;6.50;1.43;;;13.70;99.90;;;;;;5050849;28;20232;-62
2022/10/25 02:08:39;;;;;;;6.03;1.37;;;13.70;99.90;;;;;;5051974;28;20623;-62
2022/10/25 02:11:16;;;;;;;3.30;1.10;;;13.70;99.90;;;;;;5054811;28;20221;-62
2022/10/25 02:13:51;;;;;;;5.87;1.27;;;13.70;99.90;;;;;;5054942;28;20205;-62
2022/10/25 02:16:23;;;;;;;3.77;1.30;;;13.70;99.90;;;;;;5054561;28;20247;-62
2022/10/25 02:18:56;;;;;;;6.63;1.20;;;13.70;99.90;;;;;;5054818;28;20614;-62
2022/10/25 02:21:25;;;;;;;4.27;1.10;;;13.70;99.90;;;;;;5053947;28;20235;-62
2022/10/25 02:23:54;;;;;;;7.23;2.00;;;13.70;99.90;;;;;;5054037;28;20240;-62
2022/10/25 02:26:21;;;;;;;5.67;1.80;;;13.70;99.90;;;;;;5053660;28;20730;-62
2022/10/25 02:28:49;;;;;;;4.57;1.40;;;13.70;99.90;;;;;;5053845;28;20214;-62
2022/10/25 02:31:19;;;;;;;7.87;1.37;;;13.70;99.90;;;;;;5054183;28;20225;-62
2022/10/25 02:33:47;;;;;;;5.93;1.50;;;13.70;99.90;;;;;;5054222;28;20206;-62
2022/10/25 02:36:18;;;;;;;7.47;1.50;;;13.60;99.90;;;;;;5053659;28;20228;-62
2022/10/25 02:38:46;;;;;;;10.50;1.60;;;13.60;99.90;;;;;;5054204;28;20676;-62
2022/10/25 02:41:14;;;;;;;4.93;1.20;;;13.60;99.90;;;;;;5053923;28;20280;-62
2022/10/25 02:43:40;;;;;;;5.13;1.37;;;13.60;99.90;;;;;;5054143;28;20209;-62
2022/10/25 02:46:09;;;;;;;9.50;1.43;;;13.60;99.90;;;;;;5053975;28;20585;-62
2022/10/25 02:48:36;;;;;;;9.33;2.07;;;13.60;99.90;;;;;;5053891;28;20676;-62
2022/10/25 02:51:02;;;;;;;5.87;1.20;;;13.60;99.90;;;;;;5053902;28;20272;-62
2022/10/25 02:53:31;;;;;;;7.50;1.53;;;13.60;99.90;;;;;;5054254;28;20209;-62
2022/10/25 02:56:02;;;;;;;4.23;1.27;;;13.60;99.90;;;;;;5053605;28;20209;-62
2022/10/25 02:58:30;;;;;;;7.03;1.63;;;13.60;99.90;;;;;;5053922;28;20217;-62
2022/10/25 03:00:57;;;;;;;7.60;1.60;;;13.70;99.90;;;;;;5053807;28;20339;-62
2022/10/25 03:03:24;;;;;;;3.60;1.40;;;13.70;99.90;;;;;;5053403;28;20673;-62
2022/10/25 03:05:51;;;;;;;10.17;1.57;;;13.60;99.90;;;;;;5053624;28;20696;-62
2022/10/25 03:08:18;;;;;;;7.80;2.03;;;13.60;99.90;;;;;;5053620;28;20637;-62
2022/10/25 03:10:46;;;;;;;6.30;1.77;;;13.60;99.90;;;;;;5053674;28;20728;-62
2022/10/25 03:13:13;;;;;;;5.93;1.27;;;13.60;99.90;;;;;;5053913;28;20234;-62
2022/10/25 03:15:40;;;;;;;4.43;1.60;;;13.60;99.90;;;;;;5053712;28;20205;-62
2022/10/25 03:18:06;;;;;;;10.90;1.77;;;13.60;99.90;;;;;;5053416;28;20259;-62
2022/10/25 03:20:33;;;;;;;4.97;1.40;;;13.60;99.90;;;;;;5052270;28;20230;-62
2022/10/25 03:23:00;;;;;;;7.20;1.53;;;13.60;99.90;;;;;;5053371;28;20263;-62
2022/10/25 03:25:26;;;;;;;6.30;1.70;;;13.60;99.90;;;;;;5053232;28;20209;-62
2022/10/25 03:27:54;;;;;;;9.17;1.70;;;13.60;99.90;;;;;;5053007;28;20669;-62
2022/10/25 03:30:21;;;;;;;5.23;1.40;;;13.60;99.90;;;;;;5053053;28;20805;-62
2022/10/25 03:32:48;;;;;;;5.30;1.37;;;13.60;99.90;;;;;;5053171;28;20683;-62
2022/10/25 03:35:15;;;;;;;7.30;1.53;;;13.60;99.90;;;;;;5052980;28;20255;-62
2022/10/25 03:37:41;;;;;;;6.47;1.67;;;13.60;99.90;;;;;;5052824;28;20209;-62
2022/10/25 03:40:09;;;;;;;8.20;2.13;;;13.60;99.90;;;;;;5052875;28;20233;-62
2022/10/25 03:42:36;;;;;;;5.97;1.27;;;13.60;99.90;;;;;;5053309;28;20209;-62
2022/10/25 03:45:06;;;;;;;7.33;1.30;;;13.60;99.90;;;;;;5053097;28;20216;-62
2022/10/25 03:47:32;;;;;;;6.90;1.50;;;13.60;99.90;;;;;;5052704;28;20676;-62
2022/10/25 03:49:59;;;;;;;7.20;1.27;;;13.60;99.90;;;;;;5052702;28;20225;-62
2022/10/25 03:52:26;;;;;;;9.27;2.13;;;13.60;99.90;;;;;;5052405;28;20898;-62
2022/10/25 03:54:52;;;;;;;5.37;1.53;;;13.60;99.90;;;;;;5052199;28;20209;-62
2022/10/25 03:57:19;;;;;;;3.57;1.10;;;13.60;99.90;;;;;;5052723;28;20271;-62
2022/10/25 03:59:46;;;;;;;7.17;1.70;;;13.60;99.90;;;;;;5052513;28;20209;-62
2022/10/25 04:02:15;;;;;;;7.10;1.47;;;13.60;99.90;;;;;;5052441;28;20704;-62
2022/10/25 04:04:41;;;;;;;12.47;1.63;;;13.50;99.90;;;;;;5052334;28;20202;-62
2022/10/25 04:07:08;;;;;;;8.47;1.40;;;13.50;99.90;;;;;;5052337;28;20676;-61
2022/10/25 04:09:35;;;;;;;5.03;1.23;;;13.50;99.90;;;;;;5052574;28;20205;-62
2022/10/25 04:12:01;;;;;;;7.70;1.43;;;13.50;99.90;;;;;;5052625;28;20205;-62
2022/10/25 04:14:28;;;;;;;4.93;1.40;;;13.40;99.90;;;;;;5052318;28;20222;-62
2022/10/25 04:16:55;;;;;;;5.57;1.37;;;13.40;99.90;;;;;;5052112;28;20201;-62
2022/10/25 04:19:23;;;;;;;5.33;1.97;;;13.40;99.90;;;;;;5052535;28;20206;-62
2022/10/25 04:21:49;;;;;;;7.10;1.57;;;13.40;99.90;;;;;;5052055;28;20244;-63
2022/10/25 04:24:16;;;;;;;7.00;1.57;;;13.30;99.90;;;;;;5052333;28;20206;-62
2022/10/25 04:26:43;;;;;;;4.73;1.30;;;13.30;99.90;;;;;;5051821;28;20202;-62
2022/10/25 04:29:11;;;;;;;5.67;2.43;;;13.30;99.90;;;;;;5052427;28;20271;-61
2022/10/25 04:31:37;;;;;;;6.83;1.90;;;13.30;99.90;;;;;;5051885;28;20625;-61
2022/10/25 04:34:04;;;;;;;6.57;1.50;;;13.30;99.90;;;;;;5052501;28;20213;-61
2022/10/25 04:36:32;;;;;;;6.23;1.50;;;13.30;99.90;;;;;;5052007;28;20263;-62
2022/10/25 04:38:59;;;;;;;5.40;2.00;;;13.30;99.90;;;;;;5051960;28;20205;-62
2022/10/25 04:41:27;;;;;;;6.40;1.73;;;13.30;99.90;;;;;;5052002;28;20229;-63
2022/10/25 04:43:53;;;;;;;6.87;1.83;;;13.40;99.90;;;;;;5051953;28;20205;-63
2022/10/25 04:46:20;;;;;;;6.20;1.50;;;13.40;99.90;;;;;;5051334;28;20630;-62
2022/10/25 04:48:47;;;;;;;5.37;1.87;;;13.40;99.90;;;;;;5051777;28;20654;-62
2022/10/25 04:51:15;;;;;;;4.47;1.50;;;13.40;99.90;;;;;;5052066;28;20632;-62
2022/10/25 04:53:43;;;;;;;2.67;1.07;;;13.50;99.90;;;;;;5052001;28;20209;-62
2022/10/25 04:56:13;;;;;;;7.07;2.37;;;13.50;99.90;;;;;;5051443;28;20202;-62
2022/10/25 04:58:40;;;;;;;11.77;3.37;;;13.50;99.90;;;;;;5051534;28;20201;-63
2022/10/25 05:01:09;;;;;;;7.73;1.80;;;13.50;99.90;;;;;;5051677;28;20237;-62
2022/10/25 05:03:36;;;;;;;6.13;1.70;;;13.50;99.90;;;;;;5051758;28;20206;-62
2022/10/25 05:06:08;;;;;;;9.27;1.93;;;13.50;99.90;;;;;;5051188;28;20251;-62
2022/10/25 05:08:36;;;;;;;7.67;2.17;;;13.50;99.90;;;;;;5051949;28;20213;-63
2022/10/25 05:11:04;;;;;;;5.97;1.70;;;13.50;99.90;;;;;;5051426;28;20323;-62
2022/10/25 05:13:32;;;;;;;7.30;1.77;;;13.50;99.90;;;;;;5051459;28;20738;-62
2022/10/25 05:15:59;;;;;;;9.37;1.77;;;13.50;99.90;;;;;;5051646;28;20301;-60
2022/10/25 05:18:27;;;;;;;10.47;1.93;;;13.50;99.90;;;;;;5051557;28;20236;-62
2022/10/25 05:20:54;;;;;;;5.20;1.80;;;13.50;99.90;;;;;;5051408;28;20861;-62
2022/10/25 05:23:21;;;;;;;8.43;2.03;;;13.50;99.90;;;;;;5051547;28;20205;-62
2022/10/25 05:25:49;;;;;;;7.90;1.93;;;13.50;99.90;;;;;;5051504;28;20262;-62
2022/10/25 05:28:17;;;;;;;5.33;1.90;;;13.50;99.90;;;;;;5051297;28;20267;-62
2022/10/25 05:30:44;;;;;;;7.57;2.40;;;13.50;99.90;;;;;;5051578;28;20262;-62
2022/10/25 05:33:11;;;;;;;7.97;2.20;;;13.50;99.90;;;;;;5051401;28;20202;-62
2022/10/25 05:35:37;;;;;;;6.90;2.00;;;13.50;99.90;;;;;;5051741;28;20220;-62
2022/10/25 05:38:04;;;;;;;6.97;1.70;;;13.50;99.90;;;;;;5051258;28;20209;-62
2022/10/25 05:40:31;;;;;;;5.33;1.67;;;13.50;99.90;;;;;;5051112;28;20711;-62
2022/10/25 05:42:57;;;;;;;7.00;2.50;;;13.50;99.90;;;;;;5050884;28;20209;-62
2022/10/25 05:45:25;;;;;;;9.90;2.23;;;13.50;99.90;;;;;;5054874;28;20206;-62
2022/10/25 05:47:52;;;;;;;7.60;2.30;;;13.50;99.90;;;;;;5055011;28;20202;-62
2022/10/25 05:50:19;;;;;;;10.20;2.37;;;13.50;99.90;;;;;;5055004;28;20241;-62
2022/10/25 05:52:45;;;;;;;8.43;1.60;;;13.50;99.90;;;;;;5054873;28;20202;-62
2022/10/25 05:55:12;;;;;;;5.70;1.60;;;13.50;99.90;;;;;;5055118;28;20209;-62
2022/10/25 05:57:39;;;;;;;4.53;1.77;;;13.50;99.90;;;;;;5054707;28;20206;-62
2022/10/25 06:00:06;;;;;;;8.47;2.03;;;13.50;99.90;;;;;;5055044;28;20283;-62
2022/10/25 06:02:35;;;;;;;8.63;2.33;;;13.50;99.90;;;;;;5055006;28;20279;-62
2022/10/25 06:05:01;;;;;;;7.77;2.00;;;13.50;99.90;;;;;;5054821;28;20209;-62
2022/10/25 06:07:28;;;;;;;9.53;2.50;;;13.50;99.90;;;;;;5054570;28;20255;-62
2022/10/25 06:09:55;;;;;;;8.93;2.10;;;13.50;99.90;;;;;;5055027;28;20233;-62
2022/10/25 06:12:21;;;;;;;6.60;2.00;;;13.50;99.90;;;;;;5054721;28;20676;-62
2022/10/25 06:14:48;;;;;;;7.77;2.03;;;13.50;99.90;;;;;;5055017;28;20210;-62
2022/10/25 06:17:14;;;;;;;6.70;2.00;;;13.50;99.90;;;;;;5054588;28;20201;-62
2022/10/25 06:19:42;;;;;;;8.57;1.70;;;13.50;99.90;;;;;;5054607;28;20206;-62
2022/10/25 06:22:09;;;;;;;7.23;2.17;;;13.50;99.90;;;;;;5054508;28;20233;-63
2022/10/25 06:24:36;;;;;;;8.30;2.10;;;13.50;99.90;;;;;;5055087;28;20256;-63
2022/10/25 06:27:03;;;;;;;6.60;2.00;;;13.50;99.90;;;;;;5054162;28;20668;-63
2022/10/25 06:29:29;;;;;;;7.40;2.00;;;13.50;99.90;;;;;;5054493;28;20721;-63
2022/10/25 06:31:56;;;;;;;11.03;2.23;;;13.50;99.90;;;;;;5054479;28;20738;-63
2022/10/25 06:34:23;;;;;;;7.90;2.07;;;13.50;99.90;;;;;;5054398;28;20726;-63
2022/10/25 06:36:50;;;;;;;5.17;1.90;;;13.50;99.90;;;;;;5054272;28;20213;-63
2022/10/25 06:39:17;;;;;;;4.77;2.30;;;13.50;99.90;;;;;;5054540;28;20208;-62
2022/10/25 06:41:44;;;;;;;10.53;2.70;;;13.50;99.90;;;;;;5054352;28;20229;-63
2022/10/25 06:44:10;;;;;;;9.17;2.60;;;13.40;99.90;;;;;;5053801;28;20652;-63
2022/10/25 06:46:39;;;;;;;8.43;2.10;;;13.40;99.90;;;;;;5053983;28;20259;-63
2022/10/25 06:49:05;;;;;;;6.47;2.30;;;13.40;99.90;;;;;;5053859;28;20688;-63
2022/10/25 06:51:33;;;;;;;11.83;2.20;;;13.40;99.90;;;;;;5054126;28;20221;-63
2022/10/25 06:54:04;;;;;;;4.03;2.23;;;13.40;99.90;;;;;;5054123;28;20216;-63
2022/10/25 06:56:31;;;;;;;8.23;2.50;;;13.40;99.90;;;;;;5052574;28;20205;-63
2022/10/25 06:58:58;;;;;;;6.70;2.27;;;13.40;99.90;;;;;;5053759;28;20676;-63
2022/10/25 07:01:25;;;;;;;7.67;2.63;;;13.40;99.90;;;;;;5053648;28;20701;-63
2022/10/25 07:03:53;;;;;;;7.50;2.30;;;13.30;99.90;;;;;;5053582;28;20221;-63
2022/10/25 07:06:25;;;;;;;8.03;2.23;;;13.30;99.90;;;;;;5053805;28;20589;-63
2022/10/25 07:08:54;;;;;;;8.77;2.40;;;13.30;99.90;;;;;;5053981;28;20209;-63
2022/10/25 07:11:23;;;;;;;5.57;2.03;;;13.30;99.90;;;;;;5053587;28;20369;-63
2022/10/25 07:13:49;;;;;;;7.40;2.60;;;13.40;99.90;;;;;;5053290;28;20754;-63
2022/10/25 07:16:18;;;;;;;6.83;2.30;;;13.40;99.90;;;;;;5053115;28;20673;-63
2022/10/25 07:18:45;;;;;;;8.97;2.07;;;13.50;99.90;;;;;;5053664;28;20221;-63
2022/10/25 07:21:14;;;;;;;4.70;2.20;;;13.50;99.90;;;;;;5053629;28;20646;-63
2022/10/25 07:23:43;;;;;;;5.80;1.97;;;13.50;99.90;;;;;;5053495;28;20209;-63
2022/10/25 07:26:10;;;;;;;8.13;2.13;;;13.50;99.90;;;;;;5053286;28;20232;-63
2022/10/25 07:28:39;;;;;;;4.53;2.17;;;13.50;99.90;;;;;;5053096;28;20217;-63
2022/10/25 07:31:06;;;;;;;8.17;2.23;;;13.50;99.90;;;;;;5053524;28;20229;-63
2022/10/25 07:33:33;;;;;;;8.37;2.40;;;13.50;99.90;;;;;;5053332;28;20209;-63
2022/10/25 07:36:00;;;;;;;9.77;2.63;;;13.50;99.90;;;;;;5053030;28;20217;-63
2022/10/25 07:38:26;;;;;;;7.13;2.27;;;13.60;99.90;;;;;;5053184;28;20209;-63
2022/10/25 07:40:56;;;;;;;7.33;2.30;;;13.60;99.90;;;;;;5053275;28;20251;-63
2022/10/25 07:43:24;;;;;;;7.90;2.80;;;13.60;99.90;;;;;;5052943;28;20217;-63
2022/10/25 07:45:52;;;;;;;11.70;2.53;;;13.70;99.90;;;;;;5053250;28;20210;-63
2022/10/25 07:48:18;;;;;;;6.07;2.00;;;13.70;99.90;;;;;;5052837;28;20210;-63
2022/10/25 07:50:45;;;;;;;10.60;3.17;;;13.70;99.90;;;;;;5052993;28;20229;-63
2022/10/25 07:53:12;;;;;;;8.57;2.27;;;13.80;99.90;;;;;;5052752;28;20209;-62
2022/10/25 07:55:38;;;;;;;6.53;2.77;;;13.80;99.90;;;;;;5052766;28;20248;-63
2022/10/25 07:58:07;;;;;;;4.77;2.60;;;13.80;99.90;;;;;;5052799;28;20252;-63
2022/10/25 08:00:35;;;;;;;6.63;2.20;;;13.90;99.90;;;;;;5052563;28;20279;-63
2022/10/25 08:03:03;;;;;;;7.63;2.67;;;14.00;99.90;;;;;;5052628;28;20704;-63
2022/10/25 08:05:30;;;;;;;5.67;2.40;;;14.00;99.90;;;;;;5052542;28;20213;-63
2022/10/25 08:07:56;;;;;;;5.33;2.37;;;14.00;99.90;;;;;;5052090;28;20210;-63
2022/10/25 08:10:23;;;;;;;4.93;2.30;;;14.10;99.90;;;;;;5052141;28;20780;-63
2022/10/25 08:12:50;;;;;;;7.67;2.50;;;14.10;99.90;;;;;;5052534;28;20214;-63
2022/10/25 08:15:18;;;;;;;8.23;2.37;;;14.10;99.90;;;;;;5052569;28;20556;-63
2022/10/25 08:17:44;;;;;;;9.17;2.83;;;14.10;99.90;;;;;;5052187;28;20239;-63
2022/10/25 08:20:12;;;;;;;9.60;2.27;;;14.10;99.90;;;;;;5052328;28;20260;-63
2022/10/25 08:22:39;;;;;;;8.43;2.53;;;14.00;99.90;;;;;;5052246;28;20222;-63
2022/10/25 08:25:06;;;;;;;8.50;2.97;;;14.00;99.90;;;;;;5052146;28;20667;-63
2022/10/25 08:27:33;;;;;;;4.53;2.07;;;14.10;99.90;;;;;;5051933;28;20664;-63
2022/10/25 08:30:00;;;;;;;8.40;2.43;;;14.10;99.90;;;;;;5052001;28;20237;-63
2022/10/25 08:32:27;;;;;;;6.50;2.40;;;14.20;99.90;;;;;;5052345;28;20202;-63
2022/10/25 08:34:54;;;;;;;6.03;2.10;;;14.20;99.90;;;;;;5051978;28;20209;-63
2022/10/25 08:37:21;;;;;;;7.03;2.10;;;14.20;99.90;;;;;;5051687;28;20214;-63
2022/10/25 08:39:48;;;;;;;7.87;2.33;;;14.30;99.90;;;;;;5051887;28;20259;-63
2022/10/25 08:42:24;;;;;;;6.53;2.40;;;14.30;99.90;;;;;;5052087;28;20584;-63
2022/10/25 08:44:55;;;;;;;7.00;2.50;;;14.40;99.90;;;;;;5051915;28;20235;-63
2022/10/25 08:47:28;;;;;;;6.57;2.30;;;14.40;99.90;;;;;;5051832;28;20201;-63
2022/10/25 08:49:59;;;;;;;9.33;2.23;;;14.50;99.90;;;;;;5051770;28;20232;-63
2022/10/25 08:52:32;;;;;;;7.23;2.00;;;14.50;99.90;;;;;;5052206;28;20263;-63
2022/10/25 08:55:01;;;;;;;7.03;1.70;;;14.50;99.90;;;;;;5051925;28;20692;-63
2022/10/25 08:57:31;;;;;;;6.07;2.17;;;14.50;99.90;;;;;;5051852;28;20209;-63
2022/10/25 09:00:06;;;;;;;4.13;1.80;;;14.50;99.90;;;;;;5051758;28;20233;-63
2022/10/25 09:02:39;;;;;;;6.83;2.33;;;14.50;99.90;;;;;;5051584;28;20226;-63
2022/10/25 09:05:13;;;;;;;6.73;2.03;;;14.50;99.90;;;;;;5051964;28;20209;-63
2022/10/25 09:08:19;;;;;;;8.67;2.30;;;14.50;99.90;;;;;;5051645;28;20209;-63
2022/10/25 09:10:52;;;;;;;6.93;1.80;;;14.50;99.90;;;;;;5051307;28;20233;-63
2022/10/25 09:13:32;;;;;;;5.73;1.83;;;14.50;99.90;;;;;;5051623;28;20256;-63
2022/10/25 09:16:09;;;;;;;6.57;1.80;;;14.50;99.90;;;;;;5051214;28;20734;-63
2022/10/25 09:18:43;;;;;;;5.73;1.97;;;14.50;99.90;;;;;;5052515;28;20243;-63
2022/10/25 09:21:15;;;;;;;5.70;1.93;;;14.50;99.90;;;;;;5055451;28;20233;-63
2022/10/25 09:23:54;;;;;;;10.17;1.80;;;14.50;99.90;;;;;;5056139;28;20282;-63
2022/10/25 09:26:31;;;;;;;6.10;1.67;;;14.50;99.90;;;;;;5055551;28;20737;-63
2022/10/25 09:29:04;;;;;;;7.47;1.93;;;14.50;99.90;;;;;;5055725;28;20262;-63
2022/10/25 09:31:36;;;;;;;8.20;1.70;;;14.50;99.90;;;;;;5055768;28;20229;-62
2022/10/25 09:34:06;;;;;;;5.77;1.90;;;14.50;99.90;;;;;;5055887;28;20206;-63
2022/10/25 09:36:39;;;;;;;7.03;1.80;;;14.60;99.90;;;;;;5055390;28;20205;-63
2022/10/25 09:39:15;;;;;;;5.80;1.80;;;14.70;99.90;;;;;;5055299;28;20274;-63
2022/10/25 09:41:45;;;;;;;10.47;2.07;;;14.70;99.90;;;;;;5055267;28;20229;-63
2022/10/25 09:44:17;;;;;;;6.07;2.10;;;14.80;99.90;;;;;;5055201;28;20259;-63
2022/10/25 09:46:51;;;;;;;8.60;1.57;;;15.00;99.90;;;;;;5055436;28;20210;-63
2022/10/25 09:49:29;;;;;;;8.23;1.67;;;15.00;99.90;;;;;;5055533;28;20205;-63
2022/10/25 09:52:02;;;;;;;4.77;1.67;;;15.10;99.90;;;;;;5055327;28;20255;-63
2022/10/25 09:54:36;;;;;;;5.60;1.83;;;15.20;99.90;;;;;;5055362;28;20263;-63
2022/10/25 09:57:03;;;;;;;4.30;1.40;;;15.30;99.90;;;;;;5055062;28;20205;-63
2022/10/25 09:59:29;;;;;;;8.07;1.77;;;15.40;99.90;;;;;;5054908;28;20680;-63
2022/10/25 10:01:56;;;;;;;4.57;1.40;;;15.40;99.90;;;;;;5055125;28;20210;-63
2022/10/25 10:04:27;;;;;;;7.17;1.67;;;15.30;99.90;;;;;;5055209;28;20633;-63
2022/10/25 10:06:58;;;;;;;4.73;1.50;;;15.30;99.90;;;;;;5054846;28;20206;-63
2022/10/25 10:09:28;;;;;;;4.73;1.60;;;15.30;99.90;;;;;;5055165;28;20206;-63
2022/10/25 10:11:58;;;;;;;6.93;1.53;;;15.40;99.90;;;;;;5054598;28;20214;-63
2022/10/25 10:14:31;;;;;;;5.73;1.87;;;15.40;99.90;;;;;;5054579;28;20263;-63
2022/10/25 10:16:59;;;;;;;10.07;1.67;;;15.40;99.90;;;;;;5054132;28;20260;-63
2022/10/25 10:19:28;;;;;;;5.80;1.97;;;15.50;99.90;;;;;;5054501;28;20201;-63
2022/10/25 10:21:57;;;;;;;8.30;2.03;;;15.40;99.90;;;;;;5054413;28;20296;-63
2022/10/25 10:24:28;;;;;;;3.20;1.40;;;15.40;99.90;;;;;;5054510;28;20229;-63
2022/10/25 10:26:58;;;;;;;5.27;1.90;;;15.30;99.90;;;;;;5053860;28;20209;-63
2022/10/25 10:29:26;;;;;;;6.00;2.03;;;15.30;99.90;;;;;;5053912;28;20213;-63
2022/10/25 10:31:55;;;;;;;11.30;2.13;;;15.30;99.90;;;;;;5054301;28;20229;-63
2022/10/25 10:34:29;;;;;;;8.23;2.23;;;15.30;99.90;;;;;;5054272;28;20209;-63
2022/10/25 10:37:05;;;;;;;7.27;2.00;;;15.20;99.90;;;;;;5054287;28;20243;-63
2022/10/25 10:39:32;;;;;;;7.67;1.97;;;15.30;99.90;;;;;;5054197;28;20236;-63
2022/10/25 10:42:02;;;;;;;3.60;1.80;;;15.20;99.90;;;;;;5053898;28;20787;-63
2022/10/25 10:44:33;;;;;;;9.63;2.10;;;15.20;99.90;;;;;;5053996;28;20316;-63
2022/10/25 10:47:01;;;;;;;6.60;2.13;;;15.20;99.90;;;;;;5053795;28;20582;-63
2022/10/25 10:49:35;;;;;;;11.40;2.67;;;15.30;99.90;;;;;;5054117;28;20696;-63
2022/10/25 10:52:02;;;;;;;4.47;1.90;;;15.40;99.90;;;;;;5053804;28;20705;-63
2022/10/25 10:54:32;;;;;;;9.63;1.60;;;15.40;99.90;;;;;;5054105;28;20223;-63
2022/10/25 10:57:02;;;;;;;6.67;1.70;;;15.40;99.90;;;;;;5053812;28;20275;-63
2022/10/25 10:59:33;;;;;;;3.40;1.63;;;15.40;99.90;;;;;;5054157;28;20583;-63
2022/10/25 11:02:16;;;;;;;5.33;1.90;;;15.50;99.90;;;;;;5054459;28;20251;-63
2022/10/25 11:04:50;;;;;;;8.43;2.27;;;15.50;99.90;;;;;;5053895;28;20237;-63
2022/10/25 11:07:34;;;;;;;7.23;1.70;;;15.50;99.90;;;;;;5053149;28;20622;-63
2022/10/25 11:10:29;;;;;;;7.80;1.73;;;15.50;99.90;;;;;;5053607;28;20596;-63
2022/10/25 11:13:16;;;;;;;6.03;1.60;;;15.40;99.90;;;;;;5018193;28;20198;-63
2022/10/25 11:16:17;;;;;;;3.77;1.70;;;15.50;99.90;;;;;;5053743;28;20209;-63
2022/10/25 11:19:01;;;;;;;7.37;2.13;;;15.50;99.90;;;;;;5053466;28;20232;-63
2022/10/25 11:21:39;;;;;;;7.47;1.50;;;15.60;99.90;;;;;;5053319;28;20596;-63
2022/10/25 11:24:12;;;;;;;4.80;1.40;;;15.50;99.90;;;;;;5052255;28;20225;-63
2022/10/25 11:26:50;;;;;;;5.30;1.60;;;15.50;99.90;;;;;;5048182;28;20198;-69
2022/10/25 11:29:29;;;;;;;4.27;1.30;;;15.40;99.90;;;;;;5042821;28;20214;-64
2022/10/25 11:32:04;;;;;;;5.97;1.93;;;15.40;99.90;;;;;;5044595;28;20201;-64
2022/10/25 11:34:38;;;;;;;3.00;1.43;;;15.70;99.90;;;;;;5052045;28;20628;-66
2022/10/25 11:37:16;;;;;;;6.53;1.47;;;15.80;99.90;;;;;;5052419;28;20281;-67
2022/10/25 11:39:57;;;;;;;3.33;1.30;;;15.80;99.90;;;;;;5052088;28;20205;-64
2022/10/25 11:42:52;;;;;;;6.97;1.57;;;16.00;99.90;;;;;;5050356;28;20209;-65
2022/10/25 11:45:26;;;;;;;7.67;1.73;;;16.00;99.90;;;;;;5032773;28;20203;-64
2022/10/25 11:48:15;;;;;;;6.40;1.70;;;16.10;99.90;;;;;;5031692;28;20700;-64
2022/10/25 11:50:48;;;;;;;5.07;1.40;;;16.10;99.90;;;;;;5032319;28;20317;-64
2022/10/25 11:53:26;;;;;;;3.93;1.40;;;16.10;99.90;;;;;;5032580;28;20234;-64
2022/10/25 11:55:57;;;;;;;3.77;1.27;;;16.10;99.90;;;;;;5032024;28;20256;-65
2022/10/25 11:58:42;;;;;;;4.20;1.03;;;16.20;99.90;;;;;;5032196;28;20202;-64
2022/10/25 12:01:26;;;;;;;4.50;0.90;;;16.30;99.90;;;;;;5031595;28;20257;-64
2022/10/25 12:04:09;;;;;;;2.57;0.73;;;16.30;77.10;;;;;;5048790;28;20221;-65
2022/10/25 12:06:42;;;;;;;3.30;1.10;;;16.30;95.20;;;;;;5051234;28;20210;-65
2022/10/25 12:09:25;;;;;;;5.50;1.17;;;16.40;88.50;;;;;;5052068;28;20213;-64
2022/10/25 12:11:58;;;;;;;4.83;1.00;;;16.60;82.60;;;;;;5051384;28;20240;-66
2022/10/25 12:14:32;;;;;;;3.63;1.30;;;16.60;96.00;;;;;;5051799;28;20205;-66
2022/10/25 12:17:02;;;;;;;2.20;0.80;;;16.50;86.80;;;;;;5051390;28;20259;-65
2022/10/25 12:19:35;;;;;;;6.20;1.07;;;16.30;98.30;;;;;;5051927;28;20217;-65
2022/10/25 12:22:07;;;;;;;4.97;1.27;;;16.30;99.90;;;;;;5051116;28;20240;-65
2022/10/25 12:24:39;;;;;;;2.07;0.93;;;16.20;99.90;;;;;;5051401;28;20850;-65
2022/10/25 12:27:08;;;;;;;3.40;0.90;;;16.10;99.90;;;;;;5051185;28;20205;-65
2022/10/25 12:29:38;;;;;;;6.67;1.10;;;16.20;99.90;;;;;;5051642;28;20243;-64
2022/10/25 12:32:13;;;;;;;4.47;1.03;;;16.40;99.90;;;;;;5051491;28;20213;-65
2022/10/25 12:34:42;;;;;;;4.57;0.90;;;16.50;93.10;;;;;;5051251;28;20198;-65
2022/10/25 12:37:16;;;;;;;3.27;1.20;;;16.50;75.90;;;;;;5051382;28;20631;-66
2022/10/25 12:39:45;;;;;;;2.90;1.10;;;16.50;93.60;;;;;;5051025;28;20640;-65
2022/10/25 12:42:17;;;;;;;3.50;0.93;;;16.50;91.70;;;;;;5051079;28;20221;-65
2022/10/25 12:45:03;;;;;;;4.27;1.20;;;16.70;95.90;;;;;;5050685;28;20700;-65
2022/10/25 12:47:44;;;;;;;3.30;1.43;;;17.00;92.50;;;;;;5050789;28;20213;-65
2022/10/25 12:50:34;;;;;;;5.23;1.10;;;17.10;70.80;;;;;;5050737;28;20222;-65
2022/10/25 12:53:32;;;;;;;3.73;1.20;;;16.90;61.60;;;;;;5050889;28;20217;-65
2022/10/25 12:56:04;;;;;;;4.10;1.23;;;16.60;96.70;;;;;;5023599;28;20614;-64
2022/10/25 12:58:49;;;;;;;4.73;1.13;;;16.60;94.20;;;;;;5031394;28;20202;-66
2022/10/25 13:01:37;;;;;;;5.40;1.03;;;16.60;99.90;;;;;;5030639;28;20230;-66
2022/10/25 13:04:22;;;;;;;3.67;1.40;;;16.60;91.20;;;;;;5030945;28;20234;-67